sensor_id;sensor_type;location;lat;lon;timestamp;P1;P2;P0
73517;PMS5003;61766;60.318;25.044;2024-03-02T00:01:49;25;24;
73517;PMS5003;61766;60.318;25.044;2024-03-02T00:04:14;26;23;
73517;PMS5003;61766;60.318;25.044;2024-03-02T00:06:40;25;25;
73517;PMS5003;61766;60.318;25.044;2024-03-02T00:09:05;25;25;
73517;PMS5003;61766;60.318;25.044;2024-03-02T00:11:34;24;20;
73517;PMS5003;61766;60.318;25.044;2024-03-02T00:13:57;24;22;
73517;PMS5003;61766;60.318;25.044;2024-03-02T00:16:22;27;26;
73517;PMS5003;61766;60.318;25.044;2024-03-02T00:18:48;23;21;
73517;PMS5003;61766;60.318;25.044;2024-03-02T00:21:13;23;22;
73517;PMS5003;61766;60.318;25.044;2024-03-02T00:23:38;33;31;
73517;PMS5003;61766;60.318;25.044;2024-03-02T00:26:04;31;29;
73517;PMS5003;61766;60.318;25.044;2024-03-02T00:28:30;28;27;
73517;PMS5003;61766;60.318;25.044;2024-03-02T00:30:56;23;23;
73517;PMS5003;61766;60.318;25.044;2024-03-02T00:33:20;26;25;
73517;PMS5003;61766;60.318;25.044;2024-03-02T00:35:45;28;26;
73517;PMS5003;61766;60.318;25.044;2024-03-02T00:38:11;29;29;
73517;PMS5003;61766;60.318;25.044;2024-03-02T00:40:36;23;22;
73517;PMS5003;61766;60.318;25.044;2024-03-02T00:43:02;26;23;
73517;PMS5003;61766;60.318;25.044;2024-03-02T00:45:27;21;20;
73517;PMS5003;61766;60.318;25.044;2024-03-02T00:47:52;29;26;
73517;PMS5003;61766;60.318;25.044;2024-03-02T00:50:17;24;24;
73517;PMS5003;61766;60.318;25.044;2024-03-02T00:52:43;23;23;
73517;PMS5003;61766;60.318;25.044;2024-03-02T00:55:08;21;21;
73517;PMS5003;61766;60.318;25.044;2024-03-02T00:57:34;22;21;
73517;PMS5003;61766;60.318;25.044;2024-03-02T00:59:59;23;22;
73517;PMS5003;61766;60.318;25.044;2024-03-02T01:02:24;23;21;
73517;PMS5003;61766;60.318;25.044;2024-03-02T01:04:50;22;20;
73517;PMS5003;61766;60.318;25.044;2024-03-02T01:07:15;25;25;
73517;PMS5003;61766;60.318;25.044;2024-03-02T01:09:41;23;23;
73517;PMS5003;61766;60.318;25.044;2024-03-02T01:12:06;23;21;
73517;PMS5003;61766;60.318;25.044;2024-03-02T01:14:32;24;22;
73517;PMS5003;61766;60.318;25.044;2024-03-02T01:16:57;25;23;
73517;PMS5003;61766;60.318;25.044;2024-03-02T01:19:23;29;26;
73517;PMS5003;61766;60.318;25.044;2024-03-02T01:21:48;19;19;
73517;PMS5003;61766;60.318;25.044;2024-03-02T01:24:14;20;20;
73517;PMS5003;61766;60.318;25.044;2024-03-02T01:26:39;21;20;
73517;PMS5003;61766;60.318;25.044;2024-03-02T01:29:05;21;21;
73517;PMS5003;61766;60.318;25.044;2024-03-02T01:31:31;24;24;
73517;PMS5003;61766;60.318;25.044;2024-03-02T01:33:56;20;20;
73517;PMS5003;61766;60.318;25.044;2024-03-02T01:36:21;25;23;
73517;PMS5003;61766;60.318;25.044;2024-03-02T01:38:47;22;21;
73517;PMS5003;61766;60.318;25.044;2024-03-02T01:41:12;22;21;
73517;PMS5003;61766;60.318;25.044;2024-03-02T01:43:38;22;20;
73517;PMS5003;61766;60.318;25.044;2024-03-02T01:46:04;21;20;
73517;PMS5003;61766;60.318;25.044;2024-03-02T01:48:29;22;22;
73517;PMS5003;61766;60.318;25.044;2024-03-02T01:50:55;20;18;
73517;PMS5003;61766;60.318;25.044;2024-03-02T01:53:21;17;16;
73517;PMS5003;61766;60.318;25.044;2024-03-02T01:55:46;17;17;
73517;PMS5003;61766;60.318;25.044;2024-03-02T01:58:12;18;17;
73517;PMS5003;61766;60.318;25.044;2024-03-02T02:00:38;15;15;
73517;PMS5003;61766;60.318;25.044;2024-03-02T02:03:03;18;17;
73517;PMS5003;61766;60.318;25.044;2024-03-02T02:05:28;15;15;
73517;PMS5003;61766;60.318;25.044;2024-03-02T02:07:54;13;13;
73517;PMS5003;61766;60.318;25.044;2024-03-02T02:10:19;15;15;
73517;PMS5003;61766;60.318;25.044;2024-03-02T02:12:44;12;12;
73517;PMS5003;61766;60.318;25.044;2024-03-02T02:17:35;16;14;
73517;PMS5003;61766;60.318;25.044;2024-03-02T02:20:01;16;15;
73517;PMS5003;61766;60.318;25.044;2024-03-02T02:22:26;12;12;
73517;PMS5003;61766;60.318;25.044;2024-03-02T02:24:52;16;15;
73517;PMS5003;61766;60.318;25.044;2024-03-02T02:27:17;12;12;
73517;PMS5003;61766;60.318;25.044;2024-03-02T02:29:43;14;12;
73517;PMS5003;61766;60.318;25.044;2024-03-02T02:32:08;11;11;
73517;PMS5003;61766;60.318;25.044;2024-03-02T02:34:33;14;14;
73517;PMS5003;61766;60.318;25.044;2024-03-02T02:36:59;13;11;
73517;PMS5003;61766;60.318;25.044;2024-03-02T02:39:24;11;11;
73517;PMS5003;61766;60.318;25.044;2024-03-02T02:41:50;13;13;
73517;PMS5003;61766;60.318;25.044;2024-03-02T02:44:15;13;12;
73517;PMS5003;61766;60.318;25.044;2024-03-02T02:46:41;12;11;
73517;PMS5003;61766;60.318;25.044;2024-03-02T02:49:06;12;12;
73517;PMS5003;61766;60.318;25.044;2024-03-02T02:51:31;13;12;
73517;PMS5003;61766;60.318;25.044;2024-03-02T02:53:56;8;7;
73517;PMS5003;61766;60.318;25.044;2024-03-02T02:56:22;13;13;
73517;PMS5003;61766;60.318;25.044;2024-03-02T02:58:47;21;20;
73517;PMS5003;61766;60.318;25.044;2024-03-02T03:01:12;10;10;
73517;PMS5003;61766;60.318;25.044;2024-03-02T03:03:37;13;13;
73517;PMS5003;61766;60.318;25.044;2024-03-02T03:06:03;9;9;
73517;PMS5003;61766;60.318;25.044;2024-03-02T03:08:28;12;12;
73517;PMS5003;61766;60.318;25.044;2024-03-02T03:10:53;12;12;
73517;PMS5003;61766;60.318;25.044;2024-03-02T03:13:19;9;9;
73517;PMS5003;61766;60.318;25.044;2024-03-02T03:15:44;9;9;
73517;PMS5003;61766;60.318;25.044;2024-03-02T03:18:10;10;9;
73517;PMS5003;61766;60.318;25.044;2024-03-02T03:20:35;11;10;
73517;PMS5003;61766;60.318;25.044;2024-03-02T03:23:00;12;12;
73517;PMS5003;61766;60.318;25.044;2024-03-02T03:25:26;9;9;
73517;PMS5003;61766;60.318;25.044;2024-03-02T03:27:51;10;10;
73517;PMS5003;61766;60.318;25.044;2024-03-02T03:30:17;7;7;
73517;PMS5003;61766;60.318;25.044;2024-03-02T03:32:42;9;8;
73517;PMS5003;61766;60.318;25.044;2024-03-02T03:35:08;10;10;
73517;PMS5003;61766;60.318;25.044;2024-03-02T03:37:34;9;9;
73517;PMS5003;61766;60.318;25.044;2024-03-02T03:39:59;10;9;
73517;PMS5003;61766;60.318;25.044;2024-03-02T03:42:25;11;11;
73517;PMS5003;61766;60.318;25.044;2024-03-02T03:44:50;11;11;
73517;PMS5003;61766;60.318;25.044;2024-03-02T03:47:16;13;10;
73517;PMS5003;61766;60.318;25.044;2024-03-02T03:49:41;11;11;
73517;PMS5003;61766;60.318;25.044;2024-03-02T03:52:07;10;10;
73517;PMS5003;61766;60.318;25.044;2024-03-02T03:54:33;11;10;
73517;PMS5003;61766;60.318;25.044;2024-03-02T03:56:57;11;9;
73517;PMS5003;61766;60.318;25.044;2024-03-02T03:59:23;11;10;
73517;PMS5003;61766;60.318;25.044;2024-03-02T04:01:49;9;9;
73517;PMS5003;61766;60.318;25.044;2024-03-02T04:04:14;7;7;
73517;PMS5003;61766;60.318;25.044;2024-03-02T04:06:40;11;11;
73517;PMS5003;61766;60.318;25.044;2024-03-02T04:09:05;9;9;
73517;PMS5003;61766;60.318;25.044;2024-03-02T04:11:30;9;9;
73517;PMS5003;61766;60.318;25.044;2024-03-02T04:13:56;10;10;
73517;PMS5003;61766;60.318;25.044;2024-03-02T04:16:21;10;10;
73517;PMS5003;61766;60.318;25.044;2024-03-02T04:18:46;8;8;
73517;PMS5003;61766;60.318;25.044;2024-03-02T04:21:11;11;11;
73517;PMS5003;61766;60.318;25.044;2024-03-02T04:23:37;10;10;
73517;PMS5003;61766;60.318;25.044;2024-03-02T04:26:03;11;11;
73517;PMS5003;61766;60.318;25.044;2024-03-02T04:28:28;10;10;
73517;PMS5003;61766;60.318;25.044;2024-03-02T04:30:53;8;8;
73517;PMS5003;61766;60.318;25.044;2024-03-02T04:33:19;10;9;
73517;PMS5003;61766;60.318;25.044;2024-03-02T04:35:44;9;9;
73517;PMS5003;61766;60.318;25.044;2024-03-02T04:38:09;8;8;
73517;PMS5003;61766;60.318;25.044;2024-03-02T04:40:35;10;10;
73517;PMS5003;61766;60.318;25.044;2024-03-02T04:43:00;12;11;
73517;PMS5003;61766;60.318;25.044;2024-03-02T04:45:25;10;9;
73517;PMS5003;61766;60.318;25.044;2024-03-02T04:47:50;10;10;
73517;PMS5003;61766;60.318;25.044;2024-03-02T04:50:15;9;8;
73517;PMS5003;61766;60.318;25.044;2024-03-02T04:52:41;11;10;
73517;PMS5003;61766;60.318;25.044;2024-03-02T04:55:07;9;9;
73517;PMS5003;61766;60.318;25.044;2024-03-02T04:57:32;11;11;
73517;PMS5003;61766;60.318;25.044;2024-03-02T04:59:57;11;11;
73517;PMS5003;61766;60.318;25.044;2024-03-02T05:02:22;12;11;
73517;PMS5003;61766;60.318;25.044;2024-03-02T05:04:48;14;12;
73517;PMS5003;61766;60.318;25.044;2024-03-02T05:07:13;11;10;
73517;PMS5003;61766;60.318;25.044;2024-03-02T05:09:38;12;11;
73517;PMS5003;61766;60.318;25.044;2024-03-02T05:12:03;9;9;
73517;PMS5003;61766;60.318;25.044;2024-03-02T05:14:28;14;12;
73517;PMS5003;61766;60.318;25.044;2024-03-02T05:16:54;8;8;
73517;PMS5003;61766;60.318;25.044;2024-03-02T05:19:19;11;11;
73517;PMS5003;61766;60.318;25.044;2024-03-02T05:21:44;10;9;
73517;PMS5003;61766;60.318;25.044;2024-03-02T05:24:09;11;10;
73517;PMS5003;61766;60.318;25.044;2024-03-02T05:26:35;16;16;
73517;PMS5003;61766;60.318;25.044;2024-03-02T05:29:00;12;11;
73517;PMS5003;61766;60.318;25.044;2024-03-02T05:31:25;10;10;
73517;PMS5003;61766;60.318;25.044;2024-03-02T05:33:51;13;11;
73517;PMS5003;61766;60.318;25.044;2024-03-02T05:36:16;13;13;
73517;PMS5003;61766;60.318;25.044;2024-03-02T05:38:41;11;9;
73517;PMS5003;61766;60.318;25.044;2024-03-02T05:41:07;11;11;
73517;PMS5003;61766;60.318;25.044;2024-03-02T05:43:32;11;11;
73517;PMS5003;61766;60.318;25.044;2024-03-02T05:45:57;11;11;
73517;PMS5003;61766;60.318;25.044;2024-03-02T05:48:23;12;11;
73517;PMS5003;61766;60.318;25.044;2024-03-02T05:50:48;11;11;
73517;PMS5003;61766;60.318;25.044;2024-03-02T05:53:14;12;11;
73517;PMS5003;61766;60.318;25.044;2024-03-02T05:55:40;14;11;
73517;PMS5003;61766;60.318;25.044;2024-03-02T05:58:05;14;12;
73517;PMS5003;61766;60.318;25.044;2024-03-02T06:00:30;10;10;
73517;PMS5003;61766;60.318;25.044;2024-03-02T06:02:56;13;12;
73517;PMS5003;61766;60.318;25.044;2024-03-02T06:05:21;13;13;
73517;PMS5003;61766;60.318;25.044;2024-03-02T06:07:46;13;11;
73517;PMS5003;61766;60.318;25.044;2024-03-02T06:10:11;10;8;
73517;PMS5003;61766;60.318;25.044;2024-03-02T06:12:37;10;10;
73517;PMS5003;61766;60.318;25.044;2024-03-02T06:15:03;13;12;
73517;PMS5003;61766;60.318;25.044;2024-03-02T06:17:28;9;9;
73517;PMS5003;61766;60.318;25.044;2024-03-02T06:19:54;15;14;
73517;PMS5003;61766;60.318;25.044;2024-03-02T06:22:19;10;10;
73517;PMS5003;61766;60.318;25.044;2024-03-02T06:24:44;12;11;
73517;PMS5003;61766;60.318;25.044;2024-03-02T06:27:10;10;10;
73517;PMS5003;61766;60.318;25.044;2024-03-02T06:29:35;11;11;
73517;PMS5003;61766;60.318;25.044;2024-03-02T06:32:01;13;13;
73517;PMS5003;61766;60.318;25.044;2024-03-02T06:34:26;12;11;
73517;PMS5003;61766;60.318;25.044;2024-03-02T06:36:52;13;13;
73517;PMS5003;61766;60.318;25.044;2024-03-02T06:39:17;11;11;
73517;PMS5003;61766;60.318;25.044;2024-03-02T06:41:43;11;10;
73517;PMS5003;61766;60.318;25.044;2024-03-02T06:44:08;12;12;
73517;PMS5003;61766;60.318;25.044;2024-03-02T06:46:33;11;11;
73517;PMS5003;61766;60.318;25.044;2024-03-02T06:48:59;13;13;
73517;PMS5003;61766;60.318;25.044;2024-03-02T06:51:24;9;9;
73517;PMS5003;61766;60.318;25.044;2024-03-02T06:53:50;14;12;
73517;PMS5003;61766;60.318;25.044;2024-03-02T06:56:15;10;9;
73517;PMS5003;61766;60.318;25.044;2024-03-02T06:58:40;11;11;
73517;PMS5003;61766;60.318;25.044;2024-03-02T07:01:05;11;10;
73517;PMS5003;61766;60.318;25.044;2024-03-02T07:03:31;11;11;
73517;PMS5003;61766;60.318;25.044;2024-03-02T07:05:57;10;10;
73517;PMS5003;61766;60.318;25.044;2024-03-02T07:08:22;11;10;
73517;PMS5003;61766;60.318;25.044;2024-03-02T07:10:47;9;8;
73517;PMS5003;61766;60.318;25.044;2024-03-02T07:13:12;10;10;
73517;PMS5003;61766;60.318;25.044;2024-03-02T07:15:37;10;10;
73517;PMS5003;61766;60.318;25.044;2024-03-02T07:18:03;10;9;
73517;PMS5003;61766;60.318;25.044;2024-03-02T07:20:28;8;8;
73517;PMS5003;61766;60.318;25.044;2024-03-02T07:22:53;9;8;
73517;PMS5003;61766;60.318;25.044;2024-03-02T07:25:18;10;9;
73517;PMS5003;61766;60.318;25.044;2024-03-02T07:27:44;8;8;
73517;PMS5003;61766;60.318;25.044;2024-03-02T07:30:10;7;7;
73517;PMS5003;61766;60.318;25.044;2024-03-02T07:32:35;9;8;
73517;PMS5003;61766;60.318;25.044;2024-03-02T07:35:00;10;10;
73517;PMS5003;61766;60.318;25.044;2024-03-02T07:37:25;7;7;
73517;PMS5003;61766;60.318;25.044;2024-03-02T07:39:51;9;9;
73517;PMS5003;61766;60.318;25.044;2024-03-02T07:42:16;7;7;
73517;PMS5003;61766;60.318;25.044;2024-03-02T07:44:43;9;8;
73517;PMS5003;61766;60.318;25.044;2024-03-02T07:47:07;8;8;
73517;PMS5003;61766;60.318;25.044;2024-03-02T07:49:32;7;7;
73517;PMS5003;61766;60.318;25.044;2024-03-02T07:51:57;10;8;
73517;PMS5003;61766;60.318;25.044;2024-03-02T07:54:23;8;8;
73517;PMS5003;61766;60.318;25.044;2024-03-02T07:56:49;7;7;
73517;PMS5003;61766;60.318;25.044;2024-03-02T07:59:14;6;6;
73517;PMS5003;61766;60.318;25.044;2024-03-02T08:01:39;10;8;
73517;PMS5003;61766;60.318;25.044;2024-03-02T08:04:04;10;8;
73517;PMS5003;61766;60.318;25.044;2024-03-02T08:06:30;6;6;
73517;PMS5003;61766;60.318;25.044;2024-03-02T08:08:55;6;6;
73517;PMS5003;61766;60.318;25.044;2024-03-02T08:11:20;6;6;
73517;PMS5003;61766;60.318;25.044;2024-03-02T08:13:45;5;5;
73517;PMS5003;61766;60.318;25.044;2024-03-02T08:16:10;6;6;
73517;PMS5003;61766;60.318;25.044;2024-03-02T08:18:36;6;6;
73517;PMS5003;61766;60.318;25.044;2024-03-02T08:21:01;8;8;
73517;PMS5003;61766;60.318;25.044;2024-03-02T08:23:26;6;6;
73517;PMS5003;61766;60.318;25.044;2024-03-02T08:25:51;8;8;
73517;PMS5003;61766;60.318;25.044;2024-03-02T08:28:16;6;6;
73517;PMS5003;61766;60.318;25.044;2024-03-02T08:30:43;7;7;
73517;PMS5003;61766;60.318;25.044;2024-03-02T08:33:07;8;7;
73517;PMS5003;61766;60.318;25.044;2024-03-02T08:35:32;7;7;
73517;PMS5003;61766;60.318;25.044;2024-03-02T08:37:58;7;7;
73517;PMS5003;61766;60.318;25.044;2024-03-02T08:40:23;7;7;
73517;PMS5003;61766;60.318;25.044;2024-03-02T08:42:48;8;8;
73517;PMS5003;61766;60.318;25.044;2024-03-02T08:45:13;10;10;
73517;PMS5003;61766;60.318;25.044;2024-03-02T08:47:38;11;11;
73517;PMS5003;61766;60.318;25.044;2024-03-02T08:50:04;13;12;
73517;PMS5003;61766;60.318;25.044;2024-03-02T08:52:29;11;10;
73517;PMS5003;61766;60.318;25.044;2024-03-02T08:54:55;9;9;
73517;PMS5003;61766;60.318;25.044;2024-03-02T08:57:20;15;14;
73517;PMS5003;61766;60.318;25.044;2024-03-02T08:59:46;14;14;
73517;PMS5003;61766;60.318;25.044;2024-03-02T09:02:11;11;11;
73517;PMS5003;61766;60.318;25.044;2024-03-02T09:04:37;10;10;
73517;PMS5003;61766;60.318;25.044;2024-03-02T09:07:02;13;12;
73517;PMS5003;61766;60.318;25.044;2024-03-02T09:09:27;13;13;
73517;PMS5003;61766;60.318;25.044;2024-03-02T09:11:53;13;12;
73517;PMS5003;61766;60.318;25.044;2024-03-02T09:14:18;9;9;
73517;PMS5003;61766;60.318;25.044;2024-03-02T09:16:43;15;14;
73517;PMS5003;61766;60.318;25.044;2024-03-02T09:19:09;18;15;
73517;PMS5003;61766;60.318;25.044;2024-03-02T09:21:34;17;17;
73517;PMS5003;61766;60.318;25.044;2024-03-02T09:24:00;14;14;
73517;PMS5003;61766;60.318;25.044;2024-03-02T09:26:25;14;14;
73517;PMS5003;61766;60.318;25.044;2024-03-02T09:28:51;17;17;
73517;PMS5003;61766;60.318;25.044;2024-03-02T09:31:16;13;13;
73517;PMS5003;61766;60.318;25.044;2024-03-02T09:33:42;12;12;
73517;PMS5003;61766;60.318;25.044;2024-03-02T09:38:32;14;14;
73517;PMS5003;61766;60.318;25.044;2024-03-02T09:40:57;16;16;
73517;PMS5003;61766;60.318;25.044;2024-03-02T09:43:23;18;18;
73517;PMS5003;61766;60.318;25.044;2024-03-02T09:45:48;14;14;
73517;PMS5003;61766;60.318;25.044;2024-03-02T09:48:14;16;16;
73517;PMS5003;61766;60.318;25.044;2024-03-02T09:50:40;16;13;
73517;PMS5003;61766;60.318;25.044;2024-03-02T09:53:06;18;15;
73517;PMS5003;61766;60.318;25.044;2024-03-02T09:55:31;17;17;
73517;PMS5003;61766;60.318;25.044;2024-03-02T09:57:56;16;16;
73517;PMS5003;61766;60.318;25.044;2024-03-02T10:00:21;14;13;
73517;PMS5003;61766;60.318;25.044;2024-03-02T10:02:47;20;19;
73517;PMS5003;61766;60.318;25.044;2024-03-02T10:05:13;23;22;
73517;PMS5003;61766;60.318;25.044;2024-03-02T10:07:38;17;17;
73517;PMS5003;61766;60.318;25.044;2024-03-02T10:12:29;18;17;
73517;PMS5003;61766;60.318;25.044;2024-03-02T10:15:02;19;19;
73517;PMS5003;61766;60.318;25.044;2024-03-02T10:17:20;14;13;
73517;PMS5003;61766;60.318;25.044;2024-03-02T10:19:46;18;17;
73517;PMS5003;61766;60.318;25.044;2024-03-02T10:22:11;19;19;
73517;PMS5003;61766;60.318;25.044;2024-03-02T10:24:38;15;14;
73517;PMS5003;61766;60.318;25.044;2024-03-02T10:27:08;17;17;
73517;PMS5003;61766;60.318;25.044;2024-03-02T10:29:29;15;15;
73517;PMS5003;61766;60.318;25.044;2024-03-02T10:31:54;18;16;
73517;PMS5003;61766;60.318;25.044;2024-03-02T10:34:19;18;16;
73517;PMS5003;61766;60.318;25.044;2024-03-02T10:36:45;17;15;
73517;PMS5003;61766;60.318;25.044;2024-03-02T10:39:11;15;12;
73517;PMS5003;61766;60.318;25.044;2024-03-02T10:41:36;15;15;
73517;PMS5003;61766;60.318;25.044;2024-03-02T10:44:01;15;14;
73517;PMS5003;61766;60.318;25.044;2024-03-02T10:46:27;19;16;
73517;PMS5003;61766;60.318;25.044;2024-03-02T10:48:52;13;12;
73517;PMS5003;61766;60.318;25.044;2024-03-02T10:51:18;16;16;
73517;PMS5003;61766;60.318;25.044;2024-03-02T10:53:43;21;21;
73517;PMS5003;61766;60.318;25.044;2024-03-02T10:56:09;21;17;
73517;PMS5003;61766;60.318;25.044;2024-03-02T10:58:34;15;14;
73517;PMS5003;61766;60.318;25.044;2024-03-02T11:00:59;14;13;
73517;PMS5003;61766;60.318;25.044;2024-03-02T11:03:25;12;11;
73517;PMS5003;61766;60.318;25.044;2024-03-02T11:05:51;15;15;
73517;PMS5003;61766;60.318;25.044;2024-03-02T11:08:17;18;16;
73517;PMS5003;61766;60.318;25.044;2024-03-02T11:10:45;13;13;
73517;PMS5003;61766;60.318;25.044;2024-03-02T11:13:08;11;11;
73517;PMS5003;61766;60.318;25.044;2024-03-02T11:15:33;15;13;
73517;PMS5003;61766;60.318;25.044;2024-03-02T11:17:58;13;13;
73517;PMS5003;61766;60.318;25.044;2024-03-02T11:20:23;17;15;
73517;PMS5003;61766;60.318;25.044;2024-03-02T11:22:48;13;12;
73517;PMS5003;61766;60.318;25.044;2024-03-02T11:25:23;15;15;
73517;PMS5003;61766;60.318;25.044;2024-03-02T11:30:05;13;13;
73517;PMS5003;61766;60.318;25.044;2024-03-02T11:32:31;16;14;
73517;PMS5003;61766;60.318;25.044;2024-03-02T11:34:56;17;16;
73517;PMS5003;61766;60.318;25.044;2024-03-02T11:37:21;12;12;
73517;PMS5003;61766;60.318;25.044;2024-03-02T11:39:48;14;13;
73517;PMS5003;61766;60.318;25.044;2024-03-02T11:42:12;12;11;
73517;PMS5003;61766;60.318;25.044;2024-03-02T11:44:37;17;16;
73517;PMS5003;61766;60.318;25.044;2024-03-02T11:47:05;14;13;
73517;PMS5003;61766;60.318;25.044;2024-03-02T11:49:36;11;11;
73517;PMS5003;61766;60.318;25.044;2024-03-02T11:52:00;13;13;
73517;PMS5003;61766;60.318;25.044;2024-03-02T11:54:20;12;12;
73517;PMS5003;61766;60.318;25.044;2024-03-02T11:56:45;12;12;
73517;PMS5003;61766;60.318;25.044;2024-03-02T11:59:11;12;10;
73517;PMS5003;61766;60.318;25.044;2024-03-02T12:01:36;12;12;
73517;PMS5003;61766;60.318;25.044;2024-03-02T12:04:02;13;12;
73517;PMS5003;61766;60.318;25.044;2024-03-02T12:06:27;13;12;
73517;PMS5003;61766;60.318;25.044;2024-03-02T12:08:52;13;13;
73517;PMS5003;61766;60.318;25.044;2024-03-02T12:11:17;13;13;
73517;PMS5003;61766;60.318;25.044;2024-03-02T12:16:08;14;14;
73517;PMS5003;61766;60.318;25.044;2024-03-02T12:18:34;10;10;
73517;PMS5003;61766;60.318;25.044;2024-03-02T12:20:58;12;12;
73517;PMS5003;61766;60.318;25.044;2024-03-02T12:23:24;17;16;
73517;PMS5003;61766;60.318;25.044;2024-03-02T12:25:49;15;14;
73517;PMS5003;61766;60.318;25.044;2024-03-02T12:28:14;13;13;
73517;PMS5003;61766;60.318;25.044;2024-03-02T12:30:40;10;10;
73517;PMS5003;61766;60.318;25.044;2024-03-02T12:33:06;12;11;
73517;PMS5003;61766;60.318;25.044;2024-03-02T12:35:31;17;17;
73517;PMS5003;61766;60.318;25.044;2024-03-02T12:37:57;14;14;
73517;PMS5003;61766;60.318;25.044;2024-03-02T12:40:22;12;12;
73517;PMS5003;61766;60.318;25.044;2024-03-02T12:42:48;15;15;
73517;PMS5003;61766;60.318;25.044;2024-03-02T12:45:13;17;17;
73517;PMS5003;61766;60.318;25.044;2024-03-02T12:47:39;21;18;
73517;PMS5003;61766;60.318;25.044;2024-03-02T12:50:03;14;14;
73517;PMS5003;61766;60.318;25.044;2024-03-02T12:52:29;20;17;
73517;PMS5003;61766;60.318;25.044;2024-03-02T12:54:54;20;20;
73517;PMS5003;61766;60.318;25.044;2024-03-02T12:57:19;23;20;
73517;PMS5003;61766;60.318;25.044;2024-03-02T12:59:45;16;16;
73517;PMS5003;61766;60.318;25.044;2024-03-02T13:02:16;22;20;
73517;PMS5003;61766;60.318;25.044;2024-03-02T13:04:36;23;23;
73517;PMS5003;61766;60.318;25.044;2024-03-02T13:07:01;19;18;
73517;PMS5003;61766;60.318;25.044;2024-03-02T13:09:27;19;19;
73517;PMS5003;61766;60.318;25.044;2024-03-02T13:11:52;22;21;
73517;PMS5003;61766;60.318;25.044;2024-03-02T13:14:17;22;22;
73517;PMS5003;61766;60.318;25.044;2024-03-02T13:16:44;22;22;
73517;PMS5003;61766;60.318;25.044;2024-03-02T13:19:09;21;21;
73517;PMS5003;61766;60.318;25.044;2024-03-02T13:21:35;26;25;
73517;PMS5003;61766;60.318;25.044;2024-03-02T13:24:00;22;21;
73517;PMS5003;61766;60.318;25.044;2024-03-02T13:26:26;30;28;
73517;PMS5003;61766;60.318;25.044;2024-03-02T13:28:51;23;21;
73517;PMS5003;61766;60.318;25.044;2024-03-02T13:31:17;22;22;
73517;PMS5003;61766;60.318;25.044;2024-03-02T13:33:43;22;18;
73517;PMS5003;61766;60.318;25.044;2024-03-02T13:36:08;16;16;
73517;PMS5003;61766;60.318;25.044;2024-03-02T13:38:34;19;16;
73517;PMS5003;61766;60.318;25.044;2024-03-02T13:40:59;17;17;
73517;PMS5003;61766;60.318;25.044;2024-03-02T13:43:24;16;15;
73517;PMS5003;61766;60.318;25.044;2024-03-02T13:45:50;16;16;
73517;PMS5003;61766;60.318;25.044;2024-03-02T13:48:16;17;17;
73517;PMS5003;61766;60.318;25.044;2024-03-02T13:50:42;21;21;
73517;PMS5003;61766;60.318;25.044;2024-03-02T13:53:07;16;16;
73517;PMS5003;61766;60.318;25.044;2024-03-02T13:55:32;18;18;
73517;PMS5003;61766;60.318;25.044;2024-03-02T13:57:58;19;19;
73517;PMS5003;61766;60.318;25.044;2024-03-02T14:00:23;16;16;
73517;PMS5003;61766;60.318;25.044;2024-03-02T14:02:49;17;16;
73517;PMS5003;61766;60.318;25.044;2024-03-02T14:05:14;19;19;
73517;PMS5003;61766;60.318;25.044;2024-03-02T14:07:40;17;16;
73517;PMS5003;61766;60.318;25.044;2024-03-02T14:10:05;14;13;
73517;PMS5003;61766;60.318;25.044;2024-03-02T14:12:31;15;15;
73517;PMS5003;61766;60.318;25.044;2024-03-02T14:14:56;15;15;
73517;PMS5003;61766;60.318;25.044;2024-03-02T14:17:22;17;17;
73517;PMS5003;61766;60.318;25.044;2024-03-02T14:19:48;20;20;
73517;PMS5003;61766;60.318;25.044;2024-03-02T14:22:13;20;20;
73517;PMS5003;61766;60.318;25.044;2024-03-02T14:24:38;15;14;
73517;PMS5003;61766;60.318;25.044;2024-03-02T14:27:04;14;13;
73517;PMS5003;61766;60.318;25.044;2024-03-02T14:29:29;19;18;
73517;PMS5003;61766;60.318;25.044;2024-03-02T14:31:54;17;17;
73517;PMS5003;61766;60.318;25.044;2024-03-02T14:34:20;20;20;
73517;PMS5003;61766;60.318;25.044;2024-03-02T14:36:45;18;18;
73517;PMS5003;61766;60.318;25.044;2024-03-02T14:39:10;18;18;
73517;PMS5003;61766;60.318;25.044;2024-03-02T14:41:36;14;14;
73517;PMS5003;61766;60.318;25.044;2024-03-02T14:44:02;18;16;
73517;PMS5003;61766;60.318;25.044;2024-03-02T14:46:28;16;15;
73517;PMS5003;61766;60.318;25.044;2024-03-02T14:48:53;22;20;
73517;PMS5003;61766;60.318;25.044;2024-03-02T14:51:18;17;16;
73517;PMS5003;61766;60.318;25.044;2024-03-02T14:53:44;18;17;
73517;PMS5003;61766;60.318;25.044;2024-03-02T14:56:09;16;16;
73517;PMS5003;61766;60.318;25.044;2024-03-02T14:58:35;13;13;
73517;PMS5003;61766;60.318;25.044;2024-03-02T15:01:00;25;25;
73517;PMS5003;61766;60.318;25.044;2024-03-02T15:03:26;15;15;
73517;PMS5003;61766;60.318;25.044;2024-03-02T15:05:51;15;15;
73517;PMS5003;61766;60.318;25.044;2024-03-02T15:08:17;24;24;
73517;PMS5003;61766;60.318;25.044;2024-03-02T15:10:43;16;16;
73517;PMS5003;61766;60.318;25.044;2024-03-02T15:13:09;16;16;
73517;PMS5003;61766;60.318;25.044;2024-03-02T15:15:34;19;17;
73517;PMS5003;61766;60.318;25.044;2024-03-02T15:18:00;14;14;
73517;PMS5003;61766;60.318;25.044;2024-03-02T15:20:25;15;14;
73517;PMS5003;61766;60.318;25.044;2024-03-02T15:22:51;13;12;
73517;PMS5003;61766;60.318;25.044;2024-03-02T15:25:16;14;14;
73517;PMS5003;61766;60.318;25.044;2024-03-02T15:27:42;14;14;
73517;PMS5003;61766;60.318;25.044;2024-03-02T15:30:07;14;14;
73517;PMS5003;61766;60.318;25.044;2024-03-02T15:32:32;15;15;
73517;PMS5003;61766;60.318;25.044;2024-03-02T15:34:58;14;14;
73517;PMS5003;61766;60.318;25.044;2024-03-02T15:37:24;14;14;
73517;PMS5003;61766;60.318;25.044;2024-03-02T15:39:49;12;11;
73517;PMS5003;61766;60.318;25.044;2024-03-02T15:42:15;12;12;
73517;PMS5003;61766;60.318;25.044;2024-03-02T15:44:40;11;11;
73517;PMS5003;61766;60.318;25.044;2024-03-02T15:47:05;13;12;
73517;PMS5003;61766;60.318;25.044;2024-03-02T15:49:30;14;12;
73517;PMS5003;61766;60.318;25.044;2024-03-02T15:51:55;14;14;
73517;PMS5003;61766;60.318;25.044;2024-03-02T15:54:21;10;10;
73517;PMS5003;61766;60.318;25.044;2024-03-02T15:56:46;14;14;
73517;PMS5003;61766;60.318;25.044;2024-03-02T15:59:11;15;14;
73517;PMS5003;61766;60.318;25.044;2024-03-02T16:01:36;11;11;
73517;PMS5003;61766;60.318;25.044;2024-03-02T16:04:02;14;13;
73517;PMS5003;61766;60.318;25.044;2024-03-02T16:06:27;15;15;